Авиационная погода в Грозном

Регион: 
Погода METAR: 
URMG 221800Z 29005MPS CAVOK M01/M03 Q1013 R26/090070 NOSIG RMK QFE745/0993
Время наблюдения
2022-01-22T18:00:00Z
Температура C
-1.0
Точка росы
-3.0
Направление ветра
290
Скорость ветра (узлы)
10
Метео видимость
6.21
Облачность
CAVOK
Нижняя граница облачности (футы)
Явления погоды
Условия полета
VFR
Аэропорт подробнее: